Time;durP1;ratioP1;P1;durP2;ratioP2;P2;SDS_P1;SDS_P2;PMS_P1;PMS_P2;Temp;Humidity;BMP_temperature;BMP_pressure;BME280_temperature;BME280_humidity;BME280_pressure;Samples;Min_cycle;Max_cycle;Signal;HPM_P1;HPM_P2
2023/06/13 00:00:11;;;;;;;11.75;5.63;;;;;;;20.01;49.00;101374.25;5053982;28;20021;-77
2023/06/13 00:02:40;;;;;;;9.35;5.88;;;;;;;19.95;48.75;101374.84;5052968;28;20025;-74
2023/06/13 00:05:11;;;;;;;11.55;6.47;;;;;;;19.90;48.58;101375.28;5070084;28;20032;-77
2023/06/13 00:07:37;;;;;;;9.93;6.10;;;;;;;19.85;49.40;101370.28;5062260;28;20041;-75
2023/06/13 00:10:05;;;;;;;10.15;5.90;;;;;;;19.78;49.73;101380.00;5051228;28;21016;-75
2023/06/13 00:12:32;;;;;;;11.50;7.00;;;;;;;19.81;49.40;101379.69;5040495;28;20116;-75
2023/06/13 00:15:01;;;;;;;12.40;6.47;;;;;;;19.78;49.40;101379.13;5042261;28;20029;-74
2023/06/13 00:17:29;;;;;;;7.93;5.97;;;;;;;19.78;49.31;101374.59;5057846;28;20130;-76
2023/06/13 00:19:55;;;;;;;14.20;5.93;;;;;;;19.66;49.46;101375.72;5072932;28;20036;-76
2023/06/13 00:22:22;;;;;;;9.05;6.05;;;;;;;19.63;51.03;101378.72;5031473;28;20037;-77
2023/06/13 00:24:48;;;;;;;11.27;6.53;;;;;;;19.59;50.50;101375.44;5059686;28;20029;-76
2023/06/13 00:27:13;;;;;;;8.57;6.65;;;;;;;19.59;50.11;101372.72;5062111;28;20729;-75
2023/06/13 00:29:41;;;;;;;10.07;6.30;;;;;;;19.54;50.41;101374.97;5058859;28;20857;-73
2023/06/13 00:32:07;;;;;;;8.82;6.57;;;;;;;19.51;50.61;101374.41;5068005;28;20029;-76
2023/06/13 00:34:33;;;;;;;9.98;5.75;;;;;;;19.56;50.15;101372.13;5053300;28;20064;-76
2023/06/13 00:36:59;;;;;;;12.20;6.13;;;;;;;19.41;51.35;101369.00;5060800;28;20040;-75
2023/06/13 00:39:25;;;;;;;10.90;6.35;;;;;;;19.46;50.49;101369.41;5038927;28;20028;-76
2023/06/13 00:41:50;;;;;;;11.73;7.63;;;;;;;19.44;50.73;101366.00;5056024;28;20794;-76
2023/06/13 00:44:17;;;;;;;9.95;6.35;;;;;;;19.37;51.19;101360.28;5064105;28;20147;-75
2023/06/13 00:46:44;;;;;;;12.25;7.07;;;;;;;19.27;51.66;101366.69;5059456;28;20444;-74
2023/06/13 00:49:12;;;;;;;11.98;7.43;;;;;;;19.30;51.38;101372.69;5036155;28;20068;-76
2023/06/13 00:51:42;;;;;;;17.80;6.97;;;;;;;19.15;52.79;101374.94;5054740;28;20028;-74
2023/06/13 00:54:13;;;;;;;9.18;6.88;;;;;;;19.16;51.97;101373.09;5051880;28;20033;-78
2023/06/13 00:56:43;;;;;;;12.73;7.53;;;;;;;19.09;52.67;101369.25;5071154;28;20238;-78
2023/06/13 00:59:13;;;;;;;9.80;7.32;;;;;;;19.12;51.83;101367.09;5054810;28;20076;-75
2023/06/13 01:01:42;;;;;;;13.80;7.00;;;;;;;19.09;52.33;101361.13;5067599;28;20036;-77
2023/06/13 01:04:13;;;;;;;10.88;7.05;;;;;;;19.01;52.53;101363.66;5066906;28;20032;-77
2023/06/13 01:06:45;;;;;;;9.53;6.63;;;;;;;18.94;52.33;101365.22;5060708;28;20036;-74
2023/06/13 01:09:13;;;;;;;11.45;7.38;;;;;;;18.86;52.58;101364.06;5061472;28;20424;-74
2023/06/13 01:12:10;;;;;;;15.32;7.60;;;;;;;18.71;52.49;101365.44;5057985;28;20086;-75
2023/06/13 01:14:51;;;;;;;9.02;7.65;;;;;;;18.82;51.98;101359.06;5042974;28;20040;-77
2023/06/13 01:17:24;;;;;;;13.35;7.57;;;;;;;18.77;52.11;101356.78;5063611;28;20063;-77
2023/06/13 01:19:53;;;;;;;11.32;7.32;;;;;;;18.74;52.13;101350.81;5059772;28;20664;-75
2023/06/13 01:22:27;;;;;;;13.00;8.15;;;;;;;18.65;52.49;101349.75;5071581;28;20024;-76
2023/06/13 01:25:02;;;;;;;10.48;6.85;;;;;;;18.55;52.73;101349.72;5061073;28;20028;-77
2023/06/13 01:27:29;;;;;;;12.15;7.70;;;;;;;18.59;53.49;101353.00;5065530;28;20033;-77
2023/06/13 01:29:56;;;;;;;10.80;8.30;;;;;;;18.56;53.74;101346.00;5069633;28;20061;-75
2023/06/13 01:32:23;;;;;;;13.52;7.60;;;;;;;18.48;54.74;101353.09;5049837;28;20052;-74
2023/06/13 01:34:49;;;;;;;13.88;7.75;;;;;;;18.38;55.39;101350.38;5054158;28;20040;-78
2023/06/13 01:37:17;;;;;;;15.25;7.38;;;;;;;18.34;55.71;101349.78;5043545;28;20135;-75
2023/06/13 01:39:44;;;;;;;14.10;8.20;;;;;;;18.32;55.97;101353.56;5057875;28;20039;-76
2023/06/13 01:42:10;;;;;;;13.07;7.90;;;;;;;18.40;55.72;101345.66;5064642;28;20849;-75
2023/06/13 01:44:36;;;;;;;12.90;7.97;;;;;;;18.28;56.02;101347.63;5067438;28;20111;-76
2023/06/13 01:47:09;;;;;;;18.85;8.88;;;;;;;18.29;55.77;101346.63;5079311;28;20021;-76
2023/06/13 01:49:39;;;;;;;13.27;8.93;;;;;;;18.22;56.00;101352.69;5062454;28;20865;-76
2023/06/13 01:52:24;;;;;;;11.60;8.75;;;;;;;18.11;56.87;101354.47;5042734;28;20037;-75
2023/06/13 01:54:55;;;;;;;12.68;8.60;;;;;;;18.06;57.34;101354.00;5064479;28;20088;-75
2023/06/13 01:57:28;;;;;;;13.27;8.82;;;;;;;18.02;57.54;101358.00;5075270;28;20041;-77
2023/06/13 01:59:55;;;;;;;12.13;8.05;;;;;;;18.01;58.23;101358.97;5045215;28;20079;-75
2023/06/13 02:02:23;;;;;;;18.70;9.48;;;;;;;17.95;58.60;101359.50;5061829;28;20040;-75
2023/06/13 02:04:49;;;;;;;15.55;9.20;;;;;;;17.85;58.38;101355.88;5042343;28;20443;-77
2023/06/13 02:07:15;;;;;;;17.25;8.82;;;;;;;17.84;58.61;101355.03;5073578;28;20048;-75
2023/06/13 02:09:43;;;;;;;11.60;8.63;;;;;;;17.82;58.04;101356.13;5067711;28;20033;-76
2023/06/13 02:12:11;;;;;;;11.93;7.70;;;;;;;17.83;58.10;101360.56;5067202;28;20036;-76
2023/06/13 02:14:37;;;;;;;11.15;8.57;;;;;;;17.74;59.66;101350.56;5061974;28;20043;-76
2023/06/13 02:17:03;;;;;;;14.98;9.13;;;;;;;17.70;59.42;101349.91;5056850;28;20056;-74
2023/06/13 02:19:31;;;;;;;8.80;7.88;;;;;;;17.66;60.14;101351.16;5048159;28;20025;-75
2023/06/13 02:21:56;;;;;;;10.88;7.93;;;;;;;17.60;60.17;101357.94;5060321;28;20032;-76
2023/06/13 02:24:22;;;;;;;11.35;8.10;;;;;;;17.49;60.77;101354.44;5045854;28;20033;-77
2023/06/13 02:26:47;;;;;;;12.80;8.70;;;;;;;17.20;62.53;101355.03;5054869;28;20648;-77
2023/06/13 02:29:15;;;;;;;14.20;8.57;;;;;;;16.98;63.06;101357.81;5070841;28;20214;-75
2023/06/13 02:31:41;;;;;;;12.82;8.98;;;;;;;17.09;61.92;101355.94;5059608;28;20037;-74
2023/06/13 02:34:07;;;;;;;11.77;9.20;;;;;;;16.86;62.79;101361.47;5068433;28;20124;-76
2023/06/13 02:36:33;;;;;;;15.68;9.63;;;;;;;16.87;62.84;101355.09;5071068;28;20926;-76
2023/06/13 02:39:03;;;;;;;14.07;9.25;;;;;;;17.01;63.10;101360.22;5040421;28;20053;-76
2023/06/13 02:41:29;;;;;;;14.15;9.18;;;;;;;16.78;64.48;101364.81;5067085;28;20032;-74
2023/06/13 02:43:54;;;;;;;12.40;8.73;;;;;;;16.74;65.15;101363.34;5064553;28;20025;-74
2023/06/13 02:46:20;;;;;;;12.45;8.85;;;;;;;16.96;63.43;101363.28;5060321;28;20470;-76
2023/06/13 02:48:45;;;;;;;12.82;8.40;;;;;;;16.95;63.14;101363.44;5073265;28;20958;-74
2023/06/13 02:51:11;;;;;;;13.48;8.73;;;;;;;16.62;66.27;101366.97;5065227;28;20068;-74
2023/06/13 02:53:37;;;;;;;12.18;9.32;;;;;;;16.75;65.43;101365.91;5054185;28;20485;-75
2023/06/13 02:56:03;;;;;;;14.40;9.23;;;;;;;16.69;66.74;101362.84;5058278;28;20048;-78
2023/06/13 02:58:28;;;;;;;18.35;9.80;;;;;;;16.80;65.11;101366.38;5061623;28;20118;-78
2023/06/13 03:00:54;;;;;;;13.95;9.02;;;;;;;16.93;63.47;101368.94;5072581;28;20035;-76
2023/06/13 03:03:23;;;;;;;16.33;9.32;;;;;;;16.74;64.92;101366.91;5055964;28;20032;-77
2023/06/13 03:05:56;;;;;;;12.23;8.55;;;;;;;16.63;65.96;101366.03;5045629;28;20128;-77
2023/06/13 03:08:23;;;;;;;12.63;8.98;;;;;;;16.67;65.89;101362.09;5067034;28;20072;-78
2023/06/13 03:10:50;;;;;;;19.75;9.63;;;;;;;16.60;65.41;101366.25;5058220;28;20025;-78
2023/06/13 03:13:19;;;;;;;14.75;9.43;;;;;;;16.66;64.65;101371.16;5042865;28;20199;-77
2023/06/13 03:15:47;;;;;;;14.10;9.57;;;;;;;16.61;64.25;101367.97;5064793;28;20099;-77
2023/06/13 03:18:17;;;;;;;11.77;8.57;;;;;;;16.70;64.53;101372.63;5050680;28;20037;-78
2023/06/13 03:20:45;;;;;;;16.27;9.68;;;;;;;16.77;64.02;101366.66;5061607;28;20089;-78
2023/06/13 03:23:13;;;;;;;15.77;9.38;;;;;;;16.82;63.30;101371.66;5038161;28;20029;-75
2023/06/13 03:25:42;;;;;;;14.65;8.93;;;;;;;16.72;64.32;101379.63;5051025;28;20032;-76
2023/06/13 03:28:10;;;;;;;15.05;9.13;;;;;;;16.91;63.87;101372.75;5047004;28;20124;-77
2023/06/13 03:30:38;;;;;;;15.93;8.90;;;;;;;17.14;62.27;101368.16;5036628;28;20037;-77
2023/06/13 03:33:07;;;;;;;13.70;9.32;;;;;;;17.28;62.35;101366.03;5040120;28;20036;-75
2023/06/13 03:35:36;;;;;;;13.18;9.75;;;;;;;17.49;61.83;101373.31;5043589;28;20106;-77
2023/06/13 03:38:06;;;;;;;17.25;9.15;;;;;;;17.68;61.16;101370.78;5046277;28;20076;-77
2023/06/13 03:40:32;;;;;;;12.90;9.10;;;;;;;18.02;59.81;101368.78;5054681;28;20032;-77
2023/06/13 03:42:58;;;;;;;14.52;9.63;;;;;;;18.23;58.58;101365.22;5058986;28;20463;-76
2023/06/13 03:45:27;;;;;;;13.70;9.30;;;;;;;18.62;57.96;101367.09;5058699;28;20040;-78
2023/06/13 03:47:54;;;;;;;15.40;9.75;;;;;;;18.93;56.02;101366.22;5063887;28;20071;-77
2023/06/13 03:50:20;;;;;;;18.15;9.07;;;;;;;19.38;55.29;101363.88;5068687;28;20043;-76
2023/06/13 03:52:46;;;;;;;14.43;9.10;;;;;;;19.74;53.83;101362.34;5061526;28;20029;-77
2023/06/13 03:55:13;;;;;;;15.73;9.65;;;;;;;20.14;52.94;101353.13;5064745;28;20029;-76
2023/06/13 03:57:41;;;;;;;14.18;9.05;;;;;;;20.79;51.95;101351.34;5043151;28;20033;-76
2023/06/13 04:00:09;;;;;;;12.85;8.82;;;;;;;21.10;50.70;101353.72;5057281;28;21032;-74
2023/06/13 04:02:41;;;;;;;10.85;8.60;;;;;;;21.77;49.18;101343.31;5033180;28;20041;-74
2023/06/13 04:05:12;;;;;;;11.98;8.85;;;;;;;21.95;48.03;101350.44;5045052;28;20033;-75
2023/06/13 04:07:44;;;;;;;11.43;8.98;;;;;;;22.43;48.28;101343.59;5058784;28;20868;-74
2023/06/13 04:10:11;;;;;;;10.65;8.50;;;;;;;22.80;47.12;101345.13;5048451;28;20039;-78
2023/06/13 04:12:40;;;;;;;13.20;8.93;;;;;;;23.29;46.75;101352.59;5050768;28;20048;-78
2023/06/13 04:15:07;;;;;;;12.73;9.20;;;;;;;23.64;45.83;101351.47;5048608;28;20039;-77
2023/06/13 04:17:32;;;;;;;14.38;8.85;;;;;;;24.04;45.68;101351.41;5047175;28;20521;-78
2023/06/13 04:19:58;;;;;;;10.82;8.65;;;;;;;24.60;44.14;101347.91;5060413;28;20189;-76
2023/06/13 04:22:24;;;;;;;14.98;9.20;;;;;;;24.94;42.33;101342.97;5043221;28;20482;-77
2023/06/13 04:24:51;;;;;;;14.05;9.23;;;;;;;24.95;42.19;101336.50;5039626;28;20045;-76
2023/06/13 04:27:19;;;;;;;11.90;8.88;;;;;;;25.63;41.22;101328.53;5066483;28;20097;-76
2023/06/13 04:29:47;;;;;;;20.08;8.48;;;;;;;25.53;40.44;101345.16;5062796;28;20112;-76
2023/06/13 04:32:17;;;;;;;11.57;8.30;;;;;;;26.12;40.14;101339.03;5065946;28;20068;-76
2023/06/13 04:34:52;;;;;;;9.80;8.23;;;;;;;26.54;40.59;101336.50;5071547;28;20036;-77
2023/06/13 04:37:23;;;;;;;13.98;8.80;;;;;;;25.74;40.35;101348.06;5062458;28;20040;-75
2023/06/13 04:39:53;;;;;;;11.15;8.45;;;;;;;26.70;39.04;101329.13;5021092;28;20133;-74
2023/06/13 04:42:27;;;;;;;11.52;9.02;;;;;;;26.38;40.60;101328.47;5056139;28;20045;-76
2023/06/13 04:44:53;;;;;;;19.27;8.93;;;;;;;24.84;43.19;101345.06;5063798;28;20032;-75
2023/06/13 04:47:33;;;;;;;15.32;8.90;;;;;;;25.80;40.70;101330.97;5061020;28;20099;-77
2023/06/13 04:49:59;;;;;;;12.50;8.25;;;;;;;26.34;40.08;101329.88;5039578;28;20043;-76
2023/06/13 04:52:32;;;;;;;11.60;8.80;;;;;;;26.50;39.58;101329.72;5041706;28;20040;-75
2023/06/13 04:55:02;;;;;;;11.40;8.05;;;;;;;25.97;39.50;101334.38;5049011;28;20070;-77
2023/06/13 04:57:28;;;;;;;10.57;7.90;;;;;;;25.74;40.71;101339.00;5064623;28;21320;-76
2023/06/13 04:59:55;;;;;;;10.70;8.27;;;;;;;27.26;38.85;101343.94;5061917;28;20033;-76
2023/06/13 05:02:22;;;;;;;13.07;8.40;;;;;;;28.13;37.07;101340.94;5051365;28;20029;-75
2023/06/13 05:04:48;;;;;;;10.85;8.40;;;;;;;27.40;38.64;101338.59;5065668;28;20071;-75
2023/06/13 05:07:16;;;;;;;9.55;7.78;;;;;;;27.09;39.41;101340.59;5065115;28;20039;-76
2023/06/13 05:09:43;;;;;;;13.05;8.10;;;;;;;28.55;36.60;101344.56;5062380;28;20086;-75
2023/06/13 05:12:10;;;;;;;13.00;8.00;;;;;;;28.39;36.93;101350.41;5050112;28;20043;-76
2023/06/13 05:14:45;;;;;;;12.68;8.40;;;;;;;28.13;36.71;101349.16;5040637;28;20069;-76
2023/06/13 05:17:12;;;;;;;11.25;7.90;;;;;;;27.23;38.27;101352.53;5049410;28;20085;-77
2023/06/13 05:19:41;;;;;;;9.48;8.10;;;;;;;28.22;37.23;101349.00;5050278;28;20036;-76
2023/06/13 05:22:10;;;;;;;14.27;8.40;;;;;;;27.15;38.46;101347.16;5059056;28;20041;-76
2023/06/13 05:24:36;;;;;;;8.95;7.82;;;;;;;27.17;38.33;101353.31;5059681;28;20045;-76
2023/06/13 05:27:02;;;;;;;11.35;8.30;;;;;;;27.84;38.04;101355.69;5060012;28;20883;-76
2023/06/13 05:29:27;;;;;;;11.27;8.45;;;;;;;28.28;37.58;101357.28;5045838;28;20064;-77
2023/06/13 05:31:53;;;;;;;11.88;8.60;;;;;;;27.57;38.66;101354.56;5050765;28;20059;-76
2023/06/13 05:34:19;;;;;;;9.07;8.18;;;;;;;27.84;38.17;101354.84;5069737;28;20032;-76
2023/06/13 05:36:45;;;;;;;18.63;8.73;;;;;;;27.05;39.55;101357.56;5066464;28;20128;-77
2023/06/13 05:39:12;;;;;;;13.20;8.15;;;;;;;26.65;40.42;101356.22;5061169;28;20150;-76
2023/06/13 05:41:41;;;;;;;9.63;7.97;;;;;;;25.91;40.76;101362.47;5062284;28;20042;-75
2023/06/13 05:44:08;;;;;;;12.35;8.07;;;;;;;25.94;41.16;101364.81;5064314;28;20819;-70
2023/06/13 05:46:34;;;;;;;14.75;8.82;;;;;;;25.33;42.45;101363.06;5063015;28;20033;-77
2023/06/13 05:49:00;;;;;;;12.93;8.70;;;;;;;26.32;42.53;101365.63;5064768;28;20044;-76
2023/06/13 05:51:25;;;;;;;15.23;7.75;;;;;;;26.56;40.85;101359.06;5069407;28;20043;-76
2023/06/13 05:53:51;;;;;;;17.52;8.45;;;;;;;26.63;40.93;101364.63;5066410;28;20029;-77
2023/06/13 05:56:17;;;;;;;11.57;7.90;;;;;;;26.76;41.21;101359.34;5048488;28;20033;-77
2023/06/13 05:58:45;;;;;;;15.13;8.23;;;;;;;26.05;41.31;101368.97;5064633;28;20068;-77
2023/06/13 06:01:15;;;;;;;11.55;8.77;;;;;;;26.51;41.88;101371.63;5068974;28;20033;-76
2023/06/13 06:03:42;;;;;;;10.77;7.53;;;;;;;26.50;40.89;101364.44;5047443;28;20067;-75
2023/06/13 06:06:07;;;;;;;11.23;7.20;;;;;;;26.19;41.17;101367.31;5072064;28;20033;-76
2023/06/13 06:08:33;;;;;;;11.38;7.00;;;;;;;26.44;41.92;101368.78;5076112;28;20032;-77
2023/06/13 06:10:59;;;;;;;12.25;7.13;;;;;;;26.43;41.29;101371.69;5075680;28;20044;-76
2023/06/13 06:13:25;;;;;;;12.10;7.07;;;;;;;26.55;41.94;101367.44;5055661;28;20040;-77
2023/06/13 06:15:51;;;;;;;15.65;7.43;;;;;;;26.94;40.81;101366.28;5076058;28;20044;-76
2023/06/13 06:18:20;;;;;;;11.13;7.00;;;;;;;26.19;41.27;101372.78;5075499;28;20086;-77
2023/06/13 06:20:45;;;;;;;11.50;6.80;;;;;;;26.16;41.46;101373.16;5057741;28;20482;-76
2023/06/13 06:23:12;;;;;;;8.07;6.75;;;;;;;26.44;40.89;101357.81;5077681;28;20790;-76
2023/06/13 06:25:39;;;;;;;12.38;6.82;;;;;;;26.88;40.01;101365.16;5074442;28;20988;-76
2023/06/13 06:28:05;;;;;;;11.05;6.50;;;;;;;26.15;41.80;101371.44;5072830;28;20033;-76
2023/06/13 06:30:31;;;;;;;14.20;6.60;;;;;;;26.43;40.75;101361.59;5081782;28;20028;-76
2023/06/13 06:32:56;;;;;;;11.18;6.40;;;;;;;26.41;40.35;101369.13;5079166;28;20122;-77
2023/06/13 06:35:22;;;;;;;8.82;6.70;;;;;;;26.22;41.51;101365.06;5080778;28;20041;-77
2023/06/13 06:37:48;;;;;;;7.65;6.53;;;;;;;26.15;41.86;101372.28;5052447;28;20044;-76
2023/06/13 06:40:13;;;;;;;14.82;6.95;;;;;;;26.39;40.97;101378.53;5060841;28;20749;-76
2023/06/13 06:42:42;;;;;;;9.20;6.70;;;;;;;26.25;40.97;101372.03;5054293;28;20053;-75
2023/06/13 06:45:12;;;;;;;7.73;6.27;;;;;;;25.98;41.19;101376.22;5044614;28;20133;-77
2023/06/13 06:47:41;;;;;;;11.27;7.15;;;;;;;25.93;41.10;101370.47;5062240;28;20105;-76
2023/06/13 06:50:07;;;;;;;12.35;6.50;;;;;;;26.02;41.21;101375.69;5058322;28;20033;-76
2023/06/13 06:52:33;;;;;;;12.85;6.85;;;;;;;26.14;40.89;101372.47;5062846;28;20041;-76
2023/06/13 06:54:59;;;;;;;10.50;6.85;;;;;;;26.01;41.78;101382.19;5038177;28;20549;-77
2023/06/13 06:57:25;;;;;;;14.10;7.20;;;;;;;25.93;41.79;101381.41;5055516;28;20045;-76
2023/06/13 06:59:51;;;;;;;10.70;6.82;;;;;;;26.01;40.92;101387.66;5039628;28;20032;-78
2023/06/13 07:02:16;;;;;;;7.70;6.38;;;;;;;26.30;41.42;101385.97;5046147;28;20672;-78
2023/06/13 07:04:43;;;;;;;12.27;6.78;;;;;;;26.31;41.21;101387.69;5039832;28;20037;-76
2023/06/13 07:07:11;;;;;;;7.45;6.32;;;;;;;25.77;41.69;101385.97;5048354;28;20037;-76
2023/06/13 07:09:37;;;;;;;9.07;6.85;;;;;;;25.93;41.91;101392.34;5043239;28;20121;-76
2023/06/13 07:12:02;;;;;;;12.60;6.30;;;;;;;26.14;41.40;101394.34;5051868;28;20037;-77
2023/06/13 07:14:28;;;;;;;12.18;7.03;;;;;;;25.92;41.43;101387.91;5052062;28;20061;-79
2023/06/13 07:16:54;;;;;;;9.25;6.47;;;;;;;26.13;40.70;101385.31;5047770;28;20071;-76
2023/06/13 07:19:20;;;;;;;10.23;6.32;;;;;;;26.52;39.99;101398.78;5052549;28;20033;-78
2023/06/13 07:21:46;;;;;;;8.00;6.43;;;;;;;26.42;40.54;101400.94;5048336;28;20163;-77
2023/06/13 07:24:12;;;;;;;13.43;6.75;;;;;;;26.70;40.77;101394.78;5050584;28;20111;-77
2023/06/13 07:26:37;;;;;;;7.55;6.15;;;;;;;26.54;39.69;101383.00;5050799;28;20051;-77
2023/06/13 07:29:03;;;;;;;13.13;6.22;;;;;;;26.72;40.72;101387.25;5041321;28;20059;-79
2023/06/13 07:31:29;;;;;;;13.55;6.18;;;;;;;26.19;40.00;101391.91;5050398;28;20044;-77
2023/06/13 07:33:55;;;;;;;11.45;6.57;;;;;;;26.56;41.30;101393.78;5051433;28;20037;-77
2023/06/13 07:36:20;;;;;;;14.82;6.28;;;;;;;26.84;41.70;101393.94;5048893;28;20033;-78
2023/06/13 07:38:46;;;;;;;8.65;6.38;;;;;;;26.71;40.94;101391.00;5062856;28;20060;-76
2023/06/13 07:41:11;;;;;;;11.50;5.63;;;;;;;26.55;41.26;101392.06;5065135;28;20064;-77
2023/06/13 07:43:37;;;;;;;12.20;6.55;;;;;;;26.14;39.62;101392.47;5054004;28;20037;-78
2023/06/13 07:46:02;;;;;;;8.85;6.00;;;;;;;26.98;41.18;101390.34;5056187;28;20040;-78
2023/06/13 07:48:28;;;;;;;9.93;6.40;;;;;;;27.00;41.01;101393.72;5071871;28;20044;-77
2023/06/13 07:50:53;;;;;;;13.68;6.28;;;;;;;27.10;39.79;101394.28;5064781;28;20033;-79
2023/06/13 07:53:19;;;;;;;11.25;5.90;;;;;;;27.18;39.88;101387.03;5065065;28;20033;-77
2023/06/13 07:55:47;;;;;;;16.15;6.95;;;;;;;27.29;39.71;101392.00;5064731;28;20068;-78
2023/06/13 07:58:14;;;;;;;9.05;6.10;;;;;;;26.83;41.06;101389.50;5067649;28;20036;-78
2023/06/13 08:00:43;;;;;;;7.55;5.78;;;;;;;27.10;38.53;101394.28;5056021;28;20112;-76
2023/06/13 08:03:10;;;;;;;10.02;6.05;;;;;;;26.91;38.72;101386.69;5059554;28;20040;-76
2023/06/13 08:05:36;;;;;;;10.80;5.93;;;;;;;27.03;39.37;101385.13;5059011;28;20032;-77
2023/06/13 08:08:01;;;;;;;9.95;6.20;;;;;;;27.18;40.00;101392.50;5066877;28;20092;-77
2023/06/13 08:10:27;;;;;;;11.85;6.03;;;;;;;26.74;39.70;101393.38;5060041;28;20121;-77
2023/06/13 08:12:52;;;;;;;10.20;6.72;;;;;;;26.84;38.81;101383.00;5050155;28;20509;-77
2023/06/13 08:15:19;;;;;;;8.18;5.78;;;;;;;27.19;39.50;101386.81;5046594;28;20068;-80
2023/06/13 08:17:44;;;;;;;10.75;6.20;;;;;;;27.51;39.44;101381.88;5045996;28;20212;-75
2023/06/13 08:20:11;;;;;;;12.25;5.63;;;;;;;27.51;37.14;101373.66;5064483;28;20083;-76
2023/06/13 08:22:38;;;;;;;6.65;5.30;;;;;;;27.43;38.17;101373.81;5067929;28;20032;-76
2023/06/13 08:25:10;;;;;;;7.78;6.13;;;;;;;27.56;37.13;101379.41;5033407;28;20040;-77
2023/06/13 08:27:36;;;;;;;10.98;5.95;;;;;;;27.52;37.23;101376.22;5031798;28;20475;-77
2023/06/13 08:30:04;;;;;;;8.50;5.60;;;;;;;27.20;36.84;101379.44;5050553;28;20125;-79
2023/06/13 08:32:31;;;;;;;8.38;5.65;;;;;;;27.62;38.10;101376.75;5065543;28;20274;-76
2023/06/13 08:34:59;;;;;;;9.27;5.72;;;;;;;27.87;37.55;101381.88;5053082;28;20071;-77
2023/06/13 08:37:24;;;;;;;8.45;5.70;;;;;;;27.25;36.29;101372.34;5035463;28;20055;-79
2023/06/13 08:39:50;;;;;;;6.75;5.63;;;;;;;27.55;37.42;101384.03;5055383;28;20060;-77
2023/06/13 08:42:15;;;;;;;8.73;4.97;;;;;;;27.58;37.01;101385.56;5071314;28;20079;-75
2023/06/13 08:44:41;;;;;;;9.90;5.75;;;;;;;27.30;35.54;101377.25;5065910;28;21885;-75
2023/06/13 08:47:12;;;;;;;8.23;5.25;;;;;;;27.13;34.93;101375.81;5038837;28;20618;-80
2023/06/13 08:49:39;;;;;;;8.85;5.00;;;;;;;27.52;35.18;101376.22;5069390;28;20036;-76
2023/06/13 08:52:11;;;;;;;7.05;4.90;;;;;;;28.03;34.71;101375.25;5051061;28;20257;-77
2023/06/13 08:54:43;;;;;;;8.35;5.25;;;;;;;27.71;33.52;101372.00;5066528;28;20112;-78
2023/06/13 08:57:15;;;;;;;6.88;5.07;;;;;;;28.25;33.71;101367.78;5067629;28;20033;-76
2023/06/13 08:59:44;;;;;;;6.68;5.15;;;;;;;28.11;33.96;101373.19;5051255;28;20103;-76
2023/06/13 09:02:24;;;;;;;8.18;4.65;;;;;;;28.03;33.72;101361.53;5051433;28;20154;-75
2023/06/13 09:04:51;;;;;;;6.97;5.05;;;;;;;27.08;33.56;101357.22;5046434;28;20040;-76
2023/06/13 09:07:17;;;;;;;8.60;5.70;;;;;;;27.34;33.67;101351.16;5069241;28;20032;-76
2023/06/13 09:09:43;;;;;;;8.00;4.90;;;;;;;27.54;33.10;101345.88;5066264;28;20035;-77
2023/06/13 09:12:13;;;;;;;9.77;5.15;;;;;;;27.66;32.97;101351.69;5064475;28;20039;-77
2023/06/13 09:14:42;;;;;;;11.75;4.80;;;;;;;27.49;34.81;101351.09;5065144;28;20071;-77
2023/06/13 09:17:12;;;;;;;16.08;8.80;;;;;;;27.74;33.65;101349.69;5062851;28;20094;-74
2023/06/13 09:19:45;;;;;;;11.48;5.60;;;;;;;27.71;34.55;101350.06;5064418;28;20123;-78
2023/06/13 09:22:11;;;;;;;8.27;6.30;;;;;;;27.95;34.44;101347.94;5042942;28;20105;-76
2023/06/13 09:24:37;;;;;;;8.40;5.88;;;;;;;28.04;35.33;101353.09;5060145;28;20039;-77
2023/06/13 09:27:04;;;;;;;9.50;5.40;;;;;;;28.46;33.06;101344.94;5050071;28;20390;-78
2023/06/13 09:29:36;;;;;;;7.53;5.63;;;;;;;27.65;32.15;101348.09;5059549;28;20039;-76
2023/06/13 09:32:03;;;;;;;7.43;5.43;;;;;;;28.00;32.47;101346.31;5069070;28;20787;-76
2023/06/13 09:34:29;;;;;;;10.32;5.53;;;;;;;27.54;32.59;101345.88;5059793;28;20090;-76
2023/06/13 09:36:56;;;;;;;6.88;5.28;;;;;;;27.90;33.30;101342.22;5068410;28;20047;-75
2023/06/13 09:39:23;;;;;;;6.40;5.10;;;;;;;28.35;33.55;101343.63;5068764;28;20052;-74
2023/06/13 09:41:55;;;;;;;9.02;5.38;;;;;;;28.09;32.19;101331.41;5062482;28;20512;-78
2023/06/13 09:44:25;;;;;;;10.77;5.88;;;;;;;27.97;32.49;101337.66;5065828;28;20568;-77
2023/06/13 09:46:51;;;;;;;13.20;5.03;;;;;;;28.19;32.18;101335.69;5065734;28;20078;-77
2023/06/13 09:49:18;;;;;;;12.68;6.38;;;;;;;28.09;33.07;101344.28;5066816;28;20075;-76
2023/06/13 09:51:45;;;;;;;8.23;5.50;;;;;;;27.64;32.51;101340.91;5060827;28;21196;-79
2023/06/13 09:54:12;;;;;;;12.00;5.63;;;;;;;28.00;32.53;101357.28;5068661;28;20036;-77
2023/06/13 09:56:43;;;;;;;7.03;5.50;;;;;;;28.06;32.42;101336.44;5061955;28;20032;-77
2023/06/13 09:59:17;;;;;;;10.65;6.22;;;;;;;27.53;33.54;101327.75;5061307;28;20086;-78
2023/06/13 10:01:47;;;;;;;10.00;5.72;;;;;;;27.36;33.64;101341.72;5036802;28;20090;-79
2023/06/13 10:04:12;;;;;;;14.98;6.15;;;;;;;27.93;33.94;101336.34;5048912;28;20095;-78
2023/06/13 10:06:41;;;;;;;12.25;6.00;;;;;;;28.17;33.66;101326.81;5066180;28;20532;-76
2023/06/13 10:09:07;;;;;;;12.50;5.72;;;;;;;27.77;32.56;101330.13;5062057;28;20082;-77
2023/06/13 10:11:34;;;;;;;12.73;5.82;;;;;;;28.01;32.19;101325.22;5049625;28;20253;-80
2023/06/13 10:14:07;;;;;;;6.30;4.93;;;;;;;28.31;31.88;101323.09;5067137;28;20673;-81
2023/06/13 10:16:43;;;;;;;10.05;6.28;;;;;;;28.53;33.11;101329.38;5065730;28;20063;-79
2023/06/13 10:19:18;;;;;;;5.72;5.13;;;;;;;28.46;32.92;101329.31;5063768;28;20041;-79
2023/06/13 10:21:45;;;;;;;7.95;6.45;;;;;;;28.03;32.34;101334.09;5065035;28;20033;-78
2023/06/13 10:24:12;;;;;;;8.25;5.63;;;;;;;28.51;31.98;101320.47;5066239;28;20127;-78
2023/06/13 10:26:42;;;;;;;9.00;6.13;;;;;;;28.59;33.88;101323.06;5069899;28;20042;-78
2023/06/13 10:29:19;;;;;;;10.07;6.32;;;;;;;28.43;34.15;101317.94;5066300;28;20207;-78
2023/06/13 10:32:12;;;;;;;9.45;6.07;;;;;;;28.48;32.37;101324.50;5061654;28;20029;-79
2023/06/13 10:34:50;;;;;;;11.52;6.65;;;;;;;28.01;33.23;101326.06;5068770;28;20035;-77
2023/06/13 10:37:33;;;;;;;11.27;6.22;;;;;;;28.30;32.00;101316.75;5064989;28;20057;-79
2023/06/13 10:40:42;;;;;;;8.07;6.03;;;;;;;28.38;33.73;101318.53;5066652;28;20013;-77
2023/06/13 10:43:31;;;;;;;9.90;5.45;;;;;;;28.08;31.57;101320.63;5068478;28;20040;-75
2023/06/13 10:46:01;;;;;;;15.50;5.93;;;;;;;28.46;33.69;101312.84;5067013;28;20041;-76
2023/06/13 10:49:01;;;;;;;9.75;6.40;;;;;;;28.10;32.47;101313.88;5071480;28;20039;-77
2023/06/13 10:51:31;;;;;;;10.70;6.32;;;;;;;27.95;32.15;101315.06;5035626;28;20049;-76
2023/06/13 10:53:57;;;;;;;6.97;5.78;;;;;;;28.31;34.54;101318.44;5071137;28;20029;-79
2023/06/13 10:56:30;;;;;;;8.88;7.13;;;;;;;28.17;33.45;101304.88;5068049;28;20119;-78
2023/06/13 10:59:03;;;;;;;14.75;6.45;;;;;;;28.47;32.57;101295.38;5050860;28;20119;-76
2023/06/13 11:01:34;;;;;;;9.52;6.18;;;;;;;28.26;31.79;101296.25;5069509;28;20438;-76
2023/06/13 11:04:20;;;;;;;7.37;5.47;;;;;;;28.46;34.46;101301.88;5053622;28;20036;-78
2023/06/13 11:06:49;;;;;;;13.30;7.15;;;;;;;28.32;33.94;101306.44;5067320;28;20029;-78
2023/06/13 11:09:16;;;;;;;9.70;6.32;;;;;;;28.08;34.02;101312.41;5053794;28;20067;-75
2023/06/13 11:11:59;;;;;;;9.35;6.38;;;;;;;28.39;31.67;101293.63;5069566;28;21434;-76
2023/06/13 11:14:31;;;;;;;7.43;6.05;;;;;;;28.55;32.61;101275.97;5034682;28;20040;-79
2023/06/13 11:16:57;;;;;;;12.55;5.90;;;;;;;28.76;32.24;101274.97;5068395;28;20024;-78
2023/06/13 11:19:32;;;;;;;7.15;5.63;;;;;;;28.77;33.09;101278.59;5067825;28;20036;-76
2023/06/13 11:22:01;;;;;;;7.35;5.82;;;;;;;28.62;31.25;101276.00;5066465;28;20048;-78
2023/06/13 11:24:30;;;;;;;10.77;5.90;;;;;;;28.56;31.97;101269.41;5066670;28;20150;-77